sensor_id;sensor_type;location;lat;lon;timestamp;P1;durP1;ratioP1;P2;durP2;ratioP2
43487;SDS011;29078;41.932;25.554;2023-03-05T00:01:37;32.28;;;25.42;;
43487;SDS011;29078;41.932;25.554;2023-03-05T00:04:04;35.10;;;25.17;;
43487;SDS011;29078;41.932;25.554;2023-03-05T00:06:31;31.20;;;24.50;;
43487;SDS011;29078;41.932;25.554;2023-03-05T00:08:58;30.90;;;24.23;;
43487;SDS011;29078;41.932;25.554;2023-03-05T00:11:25;31.23;;;24.67;;
43487;SDS011;29078;41.932;25.554;2023-03-05T00:13:53;32.58;;;24.65;;
43487;SDS011;29078;41.932;25.554;2023-03-05T00:16:20;35.58;;;25.98;;
43487;SDS011;29078;41.932;25.554;2023-03-05T00:18:46;34.45;;;25.85;;
43487;SDS011;29078;41.932;25.554;2023-03-05T00:21:20;38.05;;;27.70;;
43487;SDS011;29078;41.932;25.554;2023-03-05T00:23:48;41.58;;;29.42;;
43487;SDS011;29078;41.932;25.554;2023-03-05T00:26:15;35.70;;;26.52;;
43487;SDS011;29078;41.932;25.554;2023-03-05T00:28:45;33.35;;;25.00;;
43487;SDS011;29078;41.932;25.554;2023-03-05T00:31:17;35.05;;;26.98;;
43487;SDS011;29078;41.932;25.554;2023-03-05T00:33:44;32.20;;;25.00;;
43487;SDS011;29078;41.932;25.554;2023-03-05T00:36:10;36.92;;;25.48;;
43487;SDS011;29078;41.932;25.554;2023-03-05T00:38:36;33.65;;;24.98;;
43487;SDS011;29078;41.932;25.554;2023-03-05T00:41:01;37.05;;;25.77;;
43487;SDS011;29078;41.932;25.554;2023-03-05T00:43:27;35.15;;;25.05;;
43487;SDS011;29078;41.932;25.554;2023-03-05T00:45:53;32.67;;;25.25;;
43487;SDS011;29078;41.932;25.554;2023-03-05T00:48:18;38.85;;;27.48;;
43487;SDS011;29078;41.932;25.554;2023-03-05T00:50:44;33.70;;;25.17;;
43487;SDS011;29078;41.932;25.554;2023-03-05T00:53:10;46.63;;;33.20;;
43487;SDS011;29078;41.932;25.554;2023-03-05T00:55:35;38.70;;;27.92;;
43487;SDS011;29078;41.932;25.554;2023-03-05T00:58:01;35.60;;;26.52;;
43487;SDS011;29078;41.932;25.554;2023-03-05T01:00:26;32.97;;;24.95;;
43487;SDS011;29078;41.932;25.554;2023-03-05T01:02:52;39.47;;;26.98;;
43487;SDS011;29078;41.932;25.554;2023-03-05T01:05:17;33.78;;;25.30;;
43487;SDS011;29078;41.932;25.554;2023-03-05T01:07:43;34.92;;;27.58;;
43487;SDS011;29078;41.932;25.554;2023-03-05T01:10:09;31.98;;;24.95;;
43487;SDS011;29078;41.932;25.554;2023-03-05T01:12:35;31.95;;;26.20;;
43487;SDS011;29078;41.932;25.554;2023-03-05T01:15:01;31.98;;;24.75;;
43487;SDS011;29078;41.932;25.554;2023-03-05T01:17:26;34.17;;;26.35;;
43487;SDS011;29078;41.932;25.554;2023-03-05T01:19:51;32.60;;;25.17;;
43487;SDS011;29078;41.932;25.554;2023-03-05T01:22:17;33.35;;;24.65;;
43487;SDS011;29078;41.932;25.554;2023-03-05T01:24:42;34.20;;;24.42;;
43487;SDS011;29078;41.932;25.554;2023-03-05T01:27:08;65.32;;;41.58;;
43487;SDS011;29078;41.932;25.554;2023-03-05T01:29:33;53.15;;;35.13;;
43487;SDS011;29078;41.932;25.554;2023-03-05T01:32:00;35.88;;;26.45;;
43487;SDS011;29078;41.932;25.554;2023-03-05T01:34:26;35.13;;;26.42;;
43487;SDS011;29078;41.932;25.554;2023-03-05T01:36:51;33.17;;;25.42;;
43487;SDS011;29078;41.932;25.554;2023-03-05T01:39:17;30.17;;;23.90;;
43487;SDS011;29078;41.932;25.554;2023-03-05T01:41:42;29.85;;;23.35;;
43487;SDS011;29078;41.932;25.554;2023-03-05T01:44:21;33.15;;;24.70;;
43487;SDS011;29078;41.932;25.554;2023-03-05T01:46:48;34.40;;;26.10;;
43487;SDS011;29078;41.932;25.554;2023-03-05T01:49:16;34.42;;;27.17;;
43487;SDS011;29078;41.932;25.554;2023-03-05T01:54:12;33.88;;;26.45;;
43487;SDS011;29078;41.932;25.554;2023-03-05T01:56:41;33.15;;;26.80;;
43487;SDS011;29078;41.932;25.554;2023-03-05T01:59:08;49.75;;;34.33;;
43487;SDS011;29078;41.932;25.554;2023-03-05T02:01:39;34.65;;;25.65;;
43487;SDS011;29078;41.932;25.554;2023-03-05T02:04:07;34.78;;;24.20;;
43487;SDS011;29078;41.932;25.554;2023-03-05T02:06:36;29.15;;;23.67;;
43487;SDS011;29078;41.932;25.554;2023-03-05T02:09:02;31.63;;;22.42;;
43487;SDS011;29078;41.932;25.554;2023-03-05T02:11:28;30.17;;;22.65;;
43487;SDS011;29078;41.932;25.554;2023-03-05T02:13:54;30.80;;;21.92;;
43487;SDS011;29078;41.932;25.554;2023-03-05T02:16:20;29.60;;;22.02;;
43487;SDS011;29078;41.932;25.554;2023-03-05T02:18:45;30.45;;;23.27;;
43487;SDS011;29078;41.932;25.554;2023-03-05T02:21:11;29.42;;;22.40;;
43487;SDS011;29078;41.932;25.554;2023-03-05T02:23:37;28.58;;;21.58;;
43487;SDS011;29078;41.932;25.554;2023-03-05T02:26:04;30.88;;;22.75;;
43487;SDS011;29078;41.932;25.554;2023-03-05T02:28:32;33.50;;;23.70;;
43487;SDS011;29078;41.932;25.554;2023-03-05T02:31:07;34.97;;;24.97;;
43487;SDS011;29078;41.932;25.554;2023-03-05T02:33:43;49.45;;;30.45;;
43487;SDS011;29078;41.932;25.554;2023-03-05T02:36:09;37.88;;;26.48;;
43487;SDS011;29078;41.932;25.554;2023-03-05T02:38:36;31.33;;;22.08;;
43487;SDS011;29078;41.932;25.554;2023-03-05T02:41:02;31.38;;;23.63;;
43487;SDS011;29078;41.932;25.554;2023-03-05T02:43:27;27.77;;;22.02;;
43487;SDS011;29078;41.932;25.554;2023-03-05T02:45:53;29.55;;;20.83;;
43487;SDS011;29078;41.932;25.554;2023-03-05T02:48:18;34.55;;;24.25;;
43487;SDS011;29078;41.932;25.554;2023-03-05T02:50:44;29.98;;;22.55;;
43487;SDS011;29078;41.932;25.554;2023-03-05T02:53:11;33.00;;;24.50;;
43487;SDS011;29078;41.932;25.554;2023-03-05T02:55:36;31.77;;;23.30;;
43487;SDS011;29078;41.932;25.554;2023-03-05T02:58:02;30.13;;;22.95;;
43487;SDS011;29078;41.932;25.554;2023-03-05T03:00:27;31.52;;;24.17;;
43487;SDS011;29078;41.932;25.554;2023-03-05T03:02:53;30.58;;;22.98;;
43487;SDS011;29078;41.932;25.554;2023-03-05T03:05:18;31.73;;;22.88;;
43487;SDS011;29078;41.932;25.554;2023-03-05T03:07:44;33.00;;;24.05;;
43487;SDS011;29078;41.932;25.554;2023-03-05T03:10:10;28.92;;;21.80;;
43487;SDS011;29078;41.932;25.554;2023-03-05T03:12:37;29.48;;;22.58;;
43487;SDS011;29078;41.932;25.554;2023-03-05T03:15:03;31.77;;;22.30;;
43487;SDS011;29078;41.932;25.554;2023-03-05T03:17:29;30.13;;;21.25;;
43487;SDS011;29078;41.932;25.554;2023-03-05T03:19:55;28.70;;;20.67;;
43487;SDS011;29078;41.932;25.554;2023-03-05T03:22:20;24.02;;;20.15;;
43487;SDS011;29078;41.932;25.554;2023-03-05T03:24:46;28.25;;;20.23;;
43487;SDS011;29078;41.932;25.554;2023-03-05T03:27:11;25.95;;;20.27;;
43487;SDS011;29078;41.932;25.554;2023-03-05T03:29:36;26.50;;;20.42;;
43487;SDS011;29078;41.932;25.554;2023-03-05T03:32:02;25.15;;;20.17;;
43487;SDS011;29078;41.932;25.554;2023-03-05T03:34:28;24.83;;;19.77;;
43487;SDS011;29078;41.932;25.554;2023-03-05T03:36:54;26.20;;;20.13;;
43487;SDS011;29078;41.932;25.554;2023-03-05T03:39:20;32.17;;;23.40;;
43487;SDS011;29078;41.932;25.554;2023-03-05T03:41:48;26.13;;;19.52;;
43487;SDS011;29078;41.932;25.554;2023-03-05T03:44:15;29.77;;;21.85;;
43487;SDS011;29078;41.932;25.554;2023-03-05T03:46:43;27.05;;;20.42;;
43487;SDS011;29078;41.932;25.554;2023-03-05T03:49:13;25.08;;;18.55;;
43487;SDS011;29078;41.932;25.554;2023-03-05T03:51:41;26.58;;;21.00;;
43487;SDS011;29078;41.932;25.554;2023-03-05T03:54:07;28.10;;;21.33;;
43487;SDS011;29078;41.932;25.554;2023-03-05T03:56:32;30.92;;;21.52;;
43487;SDS011;29078;41.932;25.554;2023-03-05T03:58:58;28.27;;;20.50;;
43487;SDS011;29078;41.932;25.554;2023-03-05T04:01:23;28.70;;;22.10;;
43487;SDS011;29078;41.932;25.554;2023-03-05T04:03:49;28.42;;;22.33;;
43487;SDS011;29078;41.932;25.554;2023-03-05T04:06:14;27.98;;;21.48;;
43487;SDS011;29078;41.932;25.554;2023-03-05T04:08:40;27.20;;;21.50;;
43487;SDS011;29078;41.932;25.554;2023-03-05T04:11:05;33.33;;;25.52;;
43487;SDS011;29078;41.932;25.554;2023-03-05T04:13:31;28.95;;;22.25;;
43487;SDS011;29078;41.932;25.554;2023-03-05T04:15:56;29.10;;;22.98;;
43487;SDS011;29078;41.932;25.554;2023-03-05T04:18:22;31.88;;;22.77;;
43487;SDS011;29078;41.932;25.554;2023-03-05T04:20:48;33.33;;;25.08;;
43487;SDS011;29078;41.932;25.554;2023-03-05T04:23:13;34.38;;;25.73;;
43487;SDS011;29078;41.932;25.554;2023-03-05T04:25:39;33.80;;;25.63;;
43487;SDS011;29078;41.932;25.554;2023-03-05T04:28:04;34.88;;;25.65;;
43487;SDS011;29078;41.932;25.554;2023-03-05T04:30:30;34.38;;;25.10;;
43487;SDS011;29078;41.932;25.554;2023-03-05T04:32:56;30.95;;;22.80;;
43487;SDS011;29078;41.932;25.554;2023-03-05T04:35:22;34.25;;;25.20;;
43487;SDS011;29078;41.932;25.554;2023-03-05T04:37:47;32.30;;;24.52;;
43487;SDS011;29078;41.932;25.554;2023-03-05T04:40:13;30.30;;;22.90;;
43487;SDS011;29078;41.932;25.554;2023-03-05T04:42:38;34.78;;;25.55;;
43487;SDS011;29078;41.932;25.554;2023-03-05T04:45:04;38.95;;;28.17;;
43487;SDS011;29078;41.932;25.554;2023-03-05T04:47:30;52.33;;;39.17;;
43487;SDS011;29078;41.932;25.554;2023-03-05T04:49:56;58.30;;;44.65;;
43487;SDS011;29078;41.932;25.554;2023-03-05T04:52:21;54.67;;;40.88;;
43487;SDS011;29078;41.932;25.554;2023-03-05T04:54:47;45.95;;;37.00;;
43487;SDS011;29078;41.932;25.554;2023-03-05T04:57:12;45.17;;;38.08;;
43487;SDS011;29078;41.932;25.554;2023-03-05T04:59:38;41.97;;;33.40;;
43487;SDS011;29078;41.932;25.554;2023-03-05T05:02:03;39.17;;;28.00;;
43487;SDS011;29078;41.932;25.554;2023-03-05T05:04:29;36.15;;;27.38;;
43487;SDS011;29078;41.932;25.554;2023-03-05T05:06:55;34.47;;;26.73;;
43487;SDS011;29078;41.932;25.554;2023-03-05T05:09:21;39.92;;;30.33;;
43487;SDS011;29078;41.932;25.554;2023-03-05T05:11:47;35.85;;;29.42;;
43487;SDS011;29078;41.932;25.554;2023-03-05T05:14:13;47.78;;;32.38;;
43487;SDS011;29078;41.932;25.554;2023-03-05T05:16:38;51.97;;;38.75;;
43487;SDS011;29078;41.932;25.554;2023-03-05T05:19:04;43.63;;;33.92;;
43487;SDS011;29078;41.932;25.554;2023-03-05T05:21:29;45.15;;;34.05;;
43487;SDS011;29078;41.932;25.554;2023-03-05T05:23:55;44.03;;;33.03;;
43487;SDS011;29078;41.932;25.554;2023-03-05T05:26:20;40.90;;;30.77;;
43487;SDS011;29078;41.932;25.554;2023-03-05T05:28:45;43.38;;;32.03;;
43487;SDS011;29078;41.932;25.554;2023-03-05T05:31:12;40.10;;;30.45;;
43487;SDS011;29078;41.932;25.554;2023-03-05T05:33:39;40.10;;;29.23;;
43487;SDS011;29078;41.932;25.554;2023-03-05T05:36:05;41.03;;;29.65;;
43487;SDS011;29078;41.932;25.554;2023-03-05T05:38:32;37.03;;;27.65;;
43487;SDS011;29078;41.932;25.554;2023-03-05T05:41:02;35.53;;;27.90;;
43487;SDS011;29078;41.932;25.554;2023-03-05T05:43:28;34.75;;;26.73;;
43487;SDS011;29078;41.932;25.554;2023-03-05T05:45:53;38.95;;;26.85;;
43487;SDS011;29078;41.932;25.554;2023-03-05T05:48:22;35.67;;;27.85;;
43487;SDS011;29078;41.932;25.554;2023-03-05T05:50:48;42.65;;;30.38;;
43487;SDS011;29078;41.932;25.554;2023-03-05T05:53:13;46.35;;;34.78;;
43487;SDS011;29078;41.932;25.554;2023-03-05T05:55:39;82.50;;;50.70;;
43487;SDS011;29078;41.932;25.554;2023-03-05T05:58:05;99.47;;;59.50;;
43487;SDS011;29078;41.932;25.554;2023-03-05T06:00:30;95.72;;;56.97;;
43487;SDS011;29078;41.932;25.554;2023-03-05T06:02:56;94.78;;;56.00;;
43487;SDS011;29078;41.932;25.554;2023-03-05T06:05:21;76.10;;;49.15;;
43487;SDS011;29078;41.932;25.554;2023-03-05T06:07:47;55.90;;;39.78;;
43487;SDS011;29078;41.932;25.554;2023-03-05T06:10:12;46.97;;;34.75;;
43487;SDS011;29078;41.932;25.554;2023-03-05T06:12:38;42.45;;;31.58;;
43487;SDS011;29078;41.932;25.554;2023-03-05T06:15:03;51.70;;;37.42;;
43487;SDS011;29078;41.932;25.554;2023-03-05T06:17:29;50.22;;;36.90;;
43487;SDS011;29078;41.932;25.554;2023-03-05T06:19:55;61.28;;;41.47;;
43487;SDS011;29078;41.932;25.554;2023-03-05T06:22:20;48.92;;;34.28;;
43487;SDS011;29078;41.932;25.554;2023-03-05T06:24:46;42.85;;;32.90;;
43487;SDS011;29078;41.932;25.554;2023-03-05T06:27:11;38.28;;;29.42;;
43487;SDS011;29078;41.932;25.554;2023-03-05T06:29:36;42.83;;;31.15;;
43487;SDS011;29078;41.932;25.554;2023-03-05T06:32:03;41.17;;;31.10;;
43487;SDS011;29078;41.932;25.554;2023-03-05T06:34:28;51.35;;;38.08;;
43487;SDS011;29078;41.932;25.554;2023-03-05T06:36:53;35.90;;;28.63;;
43487;SDS011;29078;41.932;25.554;2023-03-05T06:39:19;43.33;;;32.50;;
43487;SDS011;29078;41.932;25.554;2023-03-05T06:41:44;41.38;;;32.67;;
43487;SDS011;29078;41.932;25.554;2023-03-05T06:44:10;48.22;;;38.45;;
43487;SDS011;29078;41.932;25.554;2023-03-05T06:46:35;40.97;;;32.00;;
43487;SDS011;29078;41.932;25.554;2023-03-05T06:49:04;51.80;;;36.60;;
43487;SDS011;29078;41.932;25.554;2023-03-05T06:51:34;48.58;;;36.90;;
43487;SDS011;29078;41.932;25.554;2023-03-05T06:54:03;44.95;;;33.63;;
43487;SDS011;29078;41.932;25.554;2023-03-05T06:56:34;47.47;;;36.03;;
43487;SDS011;29078;41.932;25.554;2023-03-05T06:59:01;52.88;;;38.97;;
43487;SDS011;29078;41.932;25.554;2023-03-05T07:01:26;51.67;;;41.05;;
43487;SDS011;29078;41.932;25.554;2023-03-05T07:03:52;57.22;;;44.15;;
43487;SDS011;29078;41.932;25.554;2023-03-05T07:06:19;61.15;;;47.03;;
43487;SDS011;29078;41.932;25.554;2023-03-05T07:08:46;53.92;;;42.42;;
43487;SDS011;29078;41.932;25.554;2023-03-05T07:11:13;55.30;;;41.67;;
43487;SDS011;29078;41.932;25.554;2023-03-05T07:13:41;53.92;;;41.60;;
43487;SDS011;29078;41.932;25.554;2023-03-05T07:16:08;56.00;;;42.67;;
43487;SDS011;29078;41.932;25.554;2023-03-05T07:18:37;57.45;;;43.92;;
43487;SDS011;29078;41.932;25.554;2023-03-05T07:21:03;50.88;;;41.55;;
43487;SDS011;29078;41.932;25.554;2023-03-05T07:23:29;62.15;;;45.80;;
43487;SDS011;29078;41.932;25.554;2023-03-05T07:25:54;70.53;;;51.92;;
43487;SDS011;29078;41.932;25.554;2023-03-05T07:28:20;68.43;;;51.70;;
43487;SDS011;29078;41.932;25.554;2023-03-05T07:30:53;69.25;;;50.80;;
43487;SDS011;29078;41.932;25.554;2023-03-05T07:33:22;57.83;;;45.28;;
43487;SDS011;29078;41.932;25.554;2023-03-05T07:35:48;57.83;;;42.58;;
43487;SDS011;29078;41.932;25.554;2023-03-05T07:38:14;68.88;;;50.80;;
43487;SDS011;29078;41.932;25.554;2023-03-05T07:40:39;66.55;;;49.75;;
43487;SDS011;29078;41.932;25.554;2023-03-05T07:43:04;55.85;;;42.20;;
43487;SDS011;29078;41.932;25.554;2023-03-05T07:45:30;57.15;;;41.28;;
43487;SDS011;29078;41.932;25.554;2023-03-05T07:47:56;56.92;;;41.85;;
43487;SDS011;29078;41.932;25.554;2023-03-05T07:50:21;48.22;;;35.15;;
43487;SDS011;29078;41.932;25.554;2023-03-05T07:52:47;45.17;;;34.30;;
43487;SDS011;29078;41.932;25.554;2023-03-05T07:55:13;52.55;;;38.53;;
43487;SDS011;29078;41.932;25.554;2023-03-05T07:57:38;47.80;;;36.60;;
43487;SDS011;29078;41.932;25.554;2023-03-05T08:00:04;50.88;;;40.53;;
43487;SDS011;29078;41.932;25.554;2023-03-05T08:02:30;44.58;;;33.25;;
43487;SDS011;29078;41.932;25.554;2023-03-05T08:04:56;42.08;;;31.15;;
43487;SDS011;29078;41.932;25.554;2023-03-05T08:07:21;42.28;;;32.25;;
43487;SDS011;29078;41.932;25.554;2023-03-05T08:09:47;45.00;;;32.90;;
43487;SDS011;29078;41.932;25.554;2023-03-05T08:12:12;38.72;;;30.65;;
43487;SDS011;29078;41.932;25.554;2023-03-05T08:14:38;37.25;;;28.60;;
43487;SDS011;29078;41.932;25.554;2023-03-05T08:17:03;31.88;;;25.20;;
43487;SDS011;29078;41.932;25.554;2023-03-05T08:19:30;37.38;;;29.50;;
43487;SDS011;29078;41.932;25.554;2023-03-05T08:21:56;35.72;;;28.27;;
43487;SDS011;29078;41.932;25.554;2023-03-05T08:24:21;37.72;;;29.13;;
43487;SDS011;29078;41.932;25.554;2023-03-05T08:26:53;33.75;;;26.48;;
43487;SDS011;29078;41.932;25.554;2023-03-05T08:29:22;34.28;;;24.90;;
43487;SDS011;29078;41.932;25.554;2023-03-05T08:31:47;42.05;;;31.45;;
43487;SDS011;29078;41.932;25.554;2023-03-05T08:34:13;38.25;;;27.63;;
43487;SDS011;29078;41.932;25.554;2023-03-05T08:36:39;33.20;;;25.73;;
43487;SDS011;29078;41.932;25.554;2023-03-05T08:39:05;32.33;;;24.92;;
43487;SDS011;29078;41.932;25.554;2023-03-05T08:41:32;35.13;;;26.48;;
43487;SDS011;29078;41.932;25.554;2023-03-05T08:43:58;35.40;;;27.42;;
43487;SDS011;29078;41.932;25.554;2023-03-05T08:46:23;30.80;;;24.58;;
43487;SDS011;29078;41.932;25.554;2023-03-05T08:48:49;30.83;;;23.13;;
43487;SDS011;29078;41.932;25.554;2023-03-05T08:51:15;29.17;;;24.15;;
43487;SDS011;29078;41.932;25.554;2023-03-05T08:53:43;28.85;;;22.70;;
43487;SDS011;29078;41.932;25.554;2023-03-05T08:56:09;30.30;;;22.77;;
43487;SDS011;29078;41.932;25.554;2023-03-05T08:58:35;31.33;;;24.13;;
43487;SDS011;29078;41.932;25.554;2023-03-05T09:01:01;26.15;;;21.58;;
43487;SDS011;29078;41.932;25.554;2023-03-05T09:03:27;23.45;;;18.85;;
43487;SDS011;29078;41.932;25.554;2023-03-05T09:05:56;23.60;;;18.77;;
43487;SDS011;29078;41.932;25.554;2023-03-05T09:08:23;24.33;;;19.67;;
43487;SDS011;29078;41.932;25.554;2023-03-05T09:10:48;25.23;;;19.55;;
43487;SDS011;29078;41.932;25.554;2023-03-05T09:13:14;27.90;;;20.02;;
43487;SDS011;29078;41.932;25.554;2023-03-05T09:15:39;23.77;;;17.50;;
43487;SDS011;29078;41.932;25.554;2023-03-05T09:18:05;23.30;;;18.33;;
43487;SDS011;29078;41.932;25.554;2023-03-05T09:20:32;22.55;;;17.33;;
43487;SDS011;29078;41.932;25.554;2023-03-05T09:22:59;24.20;;;19.40;;
43487;SDS011;29078;41.932;25.554;2023-03-05T09:25:24;23.17;;;18.85;;
43487;SDS011;29078;41.932;25.554;2023-03-05T09:27:50;20.63;;;18.17;;
43487;SDS011;29078;41.932;25.554;2023-03-05T09:30:15;24.77;;;19.10;;
43487;SDS011;29078;41.932;25.554;2023-03-05T09:32:41;21.77;;;17.25;;
43487;SDS011;29078;41.932;25.554;2023-03-05T09:35:07;21.70;;;17.73;;
43487;SDS011;29078;41.932;25.554;2023-03-05T09:37:33;22.85;;;18.67;;
43487;SDS011;29078;41.932;25.554;2023-03-05T09:39:58;24.05;;;19.17;;
43487;SDS011;29078;41.932;25.554;2023-03-05T09:52:51;19.23;;;17.17;;
43487;SDS011;29078;41.932;25.554;2023-03-05T09:57:49;22.67;;;17.15;;
43487;SDS011;29078;41.932;25.554;2023-03-05T10:00:31;21.67;;;18.13;;
43487;SDS011;29078;41.932;25.554;2023-03-05T10:03:00;24.20;;;19.15;;
43487;SDS011;29078;41.932;25.554;2023-03-05T10:08:18;19.35;;;16.35;;
43487;SDS011;29078;41.932;25.554;2023-03-05T10:10:47;21.42;;;17.33;;
43487;SDS011;29078;41.932;25.554;2023-03-05T10:13:26;21.27;;;16.73;;
43487;SDS011;29078;41.932;25.554;2023-03-05T10:19:01;22.33;;;18.15;;
43487;SDS011;29078;41.932;25.554;2023-03-05T10:21:59;24.30;;;18.08;;
43487;SDS011;29078;41.932;25.554;2023-03-05T10:24:42;21.63;;;15.52;;
43487;SDS011;29078;41.932;25.554;2023-03-05T10:27:19;16.52;;;14.30;;
43487;SDS011;29078;41.932;25.554;2023-03-05T10:38:16;19.33;;;15.10;;
43487;SDS011;29078;41.932;25.554;2023-03-05T10:41:15;19.42;;;13.70;;
43487;SDS011;29078;41.932;25.554;2023-03-05T10:46:45;16.23;;;13.07;;
43487;SDS011;29078;41.932;25.554;2023-03-05T10:49:20;18.33;;;13.65;;
43487;SDS011;29078;41.932;25.554;2023-03-05T10:52:05;20.40;;;15.30;;
43487;SDS011;29078;41.932;25.554;2023-03-05T10:54:40;18.98;;;15.45;;
43487;SDS011;29078;41.932;25.554;2023-03-05T10:57:20;16.90;;;13.55;;
43487;SDS011;29078;41.932;25.554;2023-03-05T11:02:15;20.77;;;14.73;;
43487;SDS011;29078;41.932;25.554;2023-03-05T11:04:41;14.95;;;12.45;;
43487;SDS011;29078;41.932;25.554;2023-03-05T11:07:29;19.27;;;14.55;;
43487;SDS011;29078;41.932;25.554;2023-03-05T11:10:02;16.13;;;13.20;;
43487;SDS011;29078;41.932;25.554;2023-03-05T11:12:32;15.65;;;13.93;;
43487;SDS011;29078;41.932;25.554;2023-03-05T11:17:40;16.10;;;14.18;;
43487;SDS011;29078;41.932;25.554;2023-03-05T11:23:00;17.40;;;14.63;;
43487;SDS011;29078;41.932;25.554;2023-03-05T11:25:30;19.75;;;14.75;;
43487;SDS011;29078;41.932;25.554;2023-03-05T11:27:58;19.52;;;16.63;;
43487;SDS011;29078;41.932;25.554;2023-03-05T11:35:46;23.45;;;17.50;;
43487;SDS011;29078;41.932;25.554;2023-03-05T11:38:15;20.15;;;16.27;;
43487;SDS011;29078;41.932;25.554;2023-03-05T11:40:43;22.98;;;18.60;;
43487;SDS011;29078;41.932;25.554;2023-03-05T11:43:13;20.05;;;16.65;;
43487;SDS011;29078;41.932;25.554;2023-03-05T11:45:41;24.60;;;18.40;;
43487;SDS011;29078;41.932;25.554;2023-03-05T11:48:11;24.38;;;18.67;;
43487;SDS011;29078;41.932;25.554;2023-03-05T11:50:50;29.08;;;17.80;;
43487;SDS011;29078;41.932;25.554;2023-03-05T11:53:21;23.35;;;18.77;;
43487;SDS011;29078;41.932;25.554;2023-03-05T11:58:47;28.40;;;20.30;;
43487;SDS011;29078;41.932;25.554;2023-03-05T12:01:17;24.10;;;19.45;;
43487;SDS011;29078;41.932;25.554;2023-03-05T12:03:45;23.95;;;19.63;;
43487;SDS011;29078;41.932;25.554;2023-03-05T12:08:37;28.02;;;20.60;;
43487;SDS011;29078;41.932;25.554;2023-03-05T12:11:13;24.37;;;19.97;;
43487;SDS011;29078;41.932;25.554;2023-03-05T12:13:47;25.83;;;18.17;;
43487;SDS011;29078;41.932;25.554;2023-03-05T12:21:56;22.00;;;18.50;;
43487;SDS011;29078;41.932;25.554;2023-03-05T12:29:26;22.15;;;17.15;;
43487;SDS011;29078;41.932;25.554;2023-03-05T12:31:52;27.85;;;18.67;;
43487;SDS011;29078;41.932;25.554;2023-03-05T12:39:57;26.95;;;21.63;;
43487;SDS011;29078;41.932;25.554;2023-03-05T12:47:43;25.90;;;19.88;;
43487;SDS011;29078;41.932;25.554;2023-03-05T12:55:37;25.00;;;18.05;;
43487;SDS011;29078;41.932;25.554;2023-03-05T12:58:24;23.80;;;17.80;;
43487;SDS011;29078;41.932;25.554;2023-03-05T13:03:57;18.30;;;13.98;;
43487;SDS011;29078;41.932;25.554;2023-03-05T13:06:32;17.13;;;14.45;;
43487;SDS011;29078;41.932;25.554;2023-03-05T13:09:00;20.98;;;15.35;;
43487;SDS011;29078;41.932;25.554;2023-03-05T13:11:28;21.50;;;15.48;;
43487;SDS011;29078;41.932;25.554;2023-03-05T13:13:56;22.75;;;17.27;;
43487;SDS011;29078;41.932;25.554;2023-03-05T13:16:26;18.83;;;15.30;;
43487;SDS011;29078;41.932;25.554;2023-03-05T13:18:54;21.00;;;15.80;;
43487;SDS011;29078;41.932;25.554;2023-03-05T13:21:24;20.98;;;16.55;;
43487;SDS011;29078;41.932;25.554;2023-03-05T13:24:00;20.45;;;15.10;;
43487;SDS011;29078;41.932;25.554;2023-03-05T13:26:28;21.27;;;17.33;;
43487;SDS011;29078;41.932;25.554;2023-03-05T13:29:19;18.70;;;16.55;;
43487;SDS011;29078;41.932;25.554;2023-03-05T13:31:54;20.13;;;15.80;;
43487;SDS011;29078;41.932;25.554;2023-03-05T13:34:34;22.75;;;16.80;;
43487;SDS011;29078;41.932;25.554;2023-03-05T13:37:04;21.75;;;15.52;;
43487;SDS011;29078;41.932;25.554;2023-03-05T13:39:58;22.30;;;17.60;;
43487;SDS011;29078;41.932;25.554;2023-03-05T13:42:27;19.30;;;15.15;;
43487;SDS011;29078;41.932;25.554;2023-03-05T13:45:05;21.40;;;15.88;;
43487;SDS011;29078;41.932;25.554;2023-03-05T13:47:50;20.00;;;15.77;;
43487;SDS011;29078;41.932;25.554;2023-03-05T13:50:21;19.70;;;14.60;;
43487;SDS011;29078;41.932;25.554;2023-03-05T13:52:55;18.33;;;15.43;;
43487;SDS011;29078;41.932;25.554;2023-03-05T13:55:37;19.77;;;15.00;;
43487;SDS011;29078;41.932;25.554;2023-03-05T13:58:03;22.15;;;16.95;;
43487;SDS011;29078;41.932;25.554;2023-03-05T14:00:37;19.42;;;15.25;;
43487;SDS011;29078;41.932;25.554;2023-03-05T14:03:07;20.55;;;15.88;;
43487;SDS011;29078;41.932;25.554;2023-03-05T14:05:35;22.25;;;18.00;;
43487;SDS011;29078;41.932;25.554;2023-03-05T14:08:12;22.95;;;16.55;;
43487;SDS011;29078;41.932;25.554;2023-03-05T14:10:48;23.05;;;16.67;;
43487;SDS011;29078;41.932;25.554;2023-03-05T14:13:21;20.02;;;16.80;;
43487;SDS011;29078;41.932;25.554;2023-03-05T14:16:10;23.02;;;18.45;;
43487;SDS011;29078;41.932;25.554;2023-03-05T14:18:38;21.25;;;16.90;;
43487;SDS011;29078;41.932;25.554;2023-03-05T14:21:15;22.17;;;17.63;;
43487;SDS011;29078;41.932;25.554;2023-03-05T14:23:42;24.50;;;18.98;;
43487;SDS011;29078;41.932;25.554;2023-03-05T14:29:23;23.77;;;17.55;;
43487;SDS011;29078;41.932;25.554;2023-03-05T14:32:04;23.33;;;19.35;;
43487;SDS011;29078;41.932;25.554;2023-03-05T14:34:35;23.88;;;19.83;;
43487;SDS011;29078;41.932;25.554;2023-03-05T14:37:05;24.85;;;20.27;;
43487;SDS011;29078;41.932;25.554;2023-03-05T14:39:53;31.30;;;24.30;;
43487;SDS011;29078;41.932;25.554;2023-03-05T14:42:25;30.20;;;22.00;;
43487;SDS011;29078;41.932;25.554;2023-03-05T14:44:52;29.08;;;21.13;;
43487;SDS011;29078;41.932;25.554;2023-03-05T14:47:19;29.42;;;22.40;;
43487;SDS011;29078;41.932;25.554;2023-03-05T14:49:46;24.90;;;19.73;;
43487;SDS011;29078;41.932;25.554;2023-03-05T14:52:14;30.55;;;21.48;;
43487;SDS011;29078;41.932;25.554;2023-03-05T14:54:42;31.98;;;23.38;;
43487;SDS011;29078;41.932;25.554;2023-03-05T14:57:12;25.98;;;21.00;;
43487;SDS011;29078;41.932;25.554;2023-03-05T14:59:40;28.83;;;22.08;;
43487;SDS011;29078;41.932;25.554;2023-03-05T15:02:19;26.73;;;21.58;;
43487;SDS011;29078;41.932;25.554;2023-03-05T15:04:46;28.20;;;20.90;;
43487;SDS011;29078;41.932;25.554;2023-03-05T15:07:19;26.17;;;19.73;;
43487;SDS011;29078;41.932;25.554;2023-03-05T15:09:55;27.33;;;19.67;;
43487;SDS011;29078;41.932;25.554;2023-03-05T15:12:21;26.10;;;20.05;;
43487;SDS011;29078;41.932;25.554;2023-03-05T15:14:51;24.35;;;20.83;;
43487;SDS011;29078;41.932;25.554;2023-03-05T15:17:37;31.02;;;21.73;;
43487;SDS011;29078;41.932;25.554;2023-03-05T15:20:07;27.73;;;21.85;;
43487;SDS011;29078;41.932;25.554;2023-03-05T15:22:36;24.58;;;20.25;;
43487;SDS011;29078;41.932;25.554;2023-03-05T15:25:02;26.98;;;21.67;;
43487;SDS011;29078;41.932;25.554;2023-03-05T15:27:28;24.83;;;20.25;;
43487;SDS011;29078;41.932;25.554;2023-03-05T15:29:53;23.35;;;17.52;;
43487;SDS011;29078;41.932;25.554;2023-03-05T15:32:19;23.08;;;18.60;;
43487;SDS011;29078;41.932;25.554;2023-03-05T15:34:44;23.92;;;19.40;;
43487;SDS011;29078;41.932;25.554;2023-03-05T15:37:09;24.95;;;17.90;;
43487;SDS011;29078;41.932;25.554;2023-03-05T15:39:35;28.98;;;23.08;;